Main page
METAR-TAF:

METAR-TAF

Airports :

Inverness, Scotland

Inverness Airport

latitude: 57-32N, longitude: 004-03W, elevation: 9 m

Current weather observation

The report was made 21 minutes ago, at 02:20 UTC
Wind 4 kt from the West/Southwest
Temperature 5°C
Humidity 93%
Pressure 1005 hPa
Visibility 10 km or more

METAR: EGPE 220220Z AUTO 24004KT 9999 NCD 05/04 Q1005

Time: 03:41 (02:41 UTC)

Forecast

The report was made 42 minutes ago, at 01:59 UTC
Forecast valid from 22 at 03 UTC to 22 at 12 UTC
Wind 3 kt from variable directions
Visibility 10 km or more
Few clouds at a height of 4500 ft
Becoming
from 22 at 10 UTC to 22 at 12 UTC
Wind 10 kt from the Southwest

TAF: EGPE 220159Z 2203/2212 VRB03KT 9999 FEW045 BECMG 2210/2212 23010KT

Weather observations and forecasts of more than 4000 airports (METAR and TAF reports).

The available stations are represented by yellow and red dots on the map.

Hover mouse over dot to see the name of the station.

Then click to see weather observations and forecasts.

To change the map : click on the green buttons with a black cross to zoom in, on the green button with a dash to zoom out, or on the green arrows for adjacent maps.


METAR-TAF: